ASN logo
ASN Wikibase Occurrence # 194938
Last updated: 21 November 2017
This information is added by users of ASN. Neither ASN nor the Flight Safety Foundation are responsible for the completeness or correctness of this information. If you feel this information is incomplete or incorrect, you can submit corrected information.

Date:20-APR-2017
Time:15:04 UTC
Type:Silhouette image of generic E145 model; specific model in this crash may look slightly different
Embraer ERJ-145LR
Owner/operator:American Eagle
Registration: N698CB
C/n / msn: 14500877
Fatalities:Fatalities: 0 / Occupants:
Other fatalities:0
Airplane damage: None
Location:Toronto-Pearson International Airport, ON (YYZ/CYYZ) -   Canada
Phase: Taxi
Nature:International Scheduled Passenger
Departure airport:New York-JFK Airport, NY (JFK/KJFK)
Destination airport:Toronto-Pearson International Airport, ON (YYZ/CYYZ)
Narrative:
An Embraer ERJ-145LR, operating American Eagle flight AA3725 from New York-JFK Airport, was involved in a runway incursion incident at Toronto-Pearson International Airport, Canada.
The flight had landed on runway 06R and was instructed by the Toronto Tower controller to exit the runway via taxiway D3 and hold short of runway 06L, which was in use for departures. This instruction was read back correctly by AA3725.
Subsequently United flight UA211, a Boeing 737-924ER bound for Chicago-O'Hare, Illinois, USA, was cleared for takeoff from runway 06L.
As UA211 was accelerating down the runway, the Tower controller noticed that the AA3725 was crossing the stop bar for runway 06L. The controller came on the frequency and shouted "Envoy 37-25 Stop !"
After UA211 had departed without incident, AA3725 was cleared to cross the runway.

Taxiway D3 crosses runway 06L at a distance of 1830 m from the runway threshold.

Weather reported about the time of the incident:
CYYZ 201517Z 09009G15KT 4SM SHRA BR OVC013 05/04 A3014 RMK SC8 CVCTV CLD EMBD SLP211
>> CYYZ 201500Z 07010KT 060V130 5SM SHRA BR FEW008 OVC013 05/04 A3014 RMK SF2SC6 CVCTV CLD EMBD SLP212
CYYZ 201454Z 10009KT 070V140 5SM SHRA SCT008 OVC013 05/04 A3016 RMK SF3SC5 CVCTV CLD EMBD PRESRR SLP219

Sources:

https://twitter.com/TomPodolec
https://www.flightradar24.com/data/flights/ua211#d20ed7a

Audio fragment from Toronto Tower:


Images:


Revision history:

Date/timeContributorUpdates
20-Apr-2017 19:46 harro Added
20-Apr-2017 19:55 harro Updated [Source, Embed code, Narrative]
20-Apr-2017 19:56 harro Updated [Embed code]
20-Apr-2017 19:57 harro Updated [Embed code]
20-Apr-2017 20:06 harro Updated [Narrative]

Corrections or additions? ... Edit this accident description